Time;durP1;ratioP1;P1;durP2;ratioP2;P2;SDS_P1;SDS_P2;PMS_P1;PMS_P2;Temp;Humidity;BMP_temperature;BMP_pressure;BME280_temperature;BME280_humidity;BME280_pressure;Samples;Min_cycle;Max_cycle;Signal;HPM_P1;HPM_P2
2021/10/25 00:01:28;;;;;;;6.93;2.97;;;13.30;99.90;;;;;;5048464;28;20460;-68
2021/10/25 00:04:00;;;;;;;6.80;2.73;;;13.30;99.90;;;;;;5047088;28;20875;-68
2021/10/25 00:06:31;;;;;;;5.17;3.50;;;13.30;99.90;;;;;;5047339;28;20463;-69
2021/10/25 00:09:01;;;;;;;5.03;2.50;;;13.30;99.90;;;;;;5047275;28;20539;-68
2021/10/25 00:11:33;;;;;;;9.07;2.97;;;13.20;99.90;;;;;;5049254;28;20646;-68
2021/10/25 00:14:05;;;;;;;5.73;2.90;;;13.20;99.90;;;;;;5044198;28;20476;-69
2021/10/25 00:16:36;;;;;;;4.10;2.70;;;13.10;99.90;;;;;;5049900;28;20466;-69
2021/10/25 00:19:07;;;;;;;5.03;2.23;;;13.00;99.90;;;;;;5036137;28;20987;-69
2021/10/25 00:21:38;;;;;;;5.70;2.60;;;12.90;99.90;;;;;;5049751;28;20463;-68
2021/10/25 00:24:09;;;;;;;4.70;2.87;;;12.90;99.90;;;;;;5028328;28;20472;-68
2021/10/25 00:26:40;;;;;;;6.07;2.50;;;12.90;99.90;;;;;;5041643;28;20460;-69
2021/10/25 00:29:15;;;;;;;4.00;2.30;;;12.80;99.90;;;;;;5045936;28;20460;-69
2021/10/25 00:31:46;;;;;;;5.27;2.80;;;12.70;99.90;;;;;;5049822;28;20451;-69
2021/10/25 00:34:17;;;;;;;6.90;2.57;;;12.70;99.90;;;;;;5046529;28;20813;-69
2021/10/25 00:36:48;;;;;;;7.00;2.93;;;12.70;99.90;;;;;;5049358;28;20456;-68
2021/10/25 00:39:18;;;;;;;4.63;3.27;;;12.60;99.90;;;;;;5044415;28;21041;-71
2021/10/25 00:41:50;;;;;;;6.17;2.30;;;12.50;99.90;;;;;;5049345;28;20463;-68
2021/10/25 00:44:22;;;;;;;4.70;3.00;;;12.50;99.90;;;;;;5044763;28;20868;-69
2021/10/25 00:46:53;;;;;;;5.17;2.20;;;12.50;99.90;;;;;;5034032;28;20835;-69
2021/10/25 00:49:24;;;;;;;5.90;2.23;;;12.50;99.90;;;;;;5040927;28;20456;-68
2021/10/25 00:51:55;;;;;;;8.07;3.37;;;12.50;99.90;;;;;;5048720;28;20495;-68
2021/10/25 00:54:26;;;;;;;5.50;3.23;;;12.40;99.90;;;;;;5040677;28;20471;-68
2021/10/25 00:56:57;;;;;;;4.30;2.80;;;12.40;99.90;;;;;;5049467;28;20471;-68
2021/10/25 00:59:30;;;;;;;4.00;2.10;;;12.50;99.90;;;;;;5039096;28;20807;-68
2021/10/25 01:02:01;;;;;;;5.80;1.97;;;12.40;99.90;;;;;;5049127;28;20515;-68
2021/10/25 01:04:32;;;;;;;5.53;2.60;;;12.40;99.90;;;;;;5029147;28;20465;-68
2021/10/25 01:07:04;;;;;;;6.53;2.40;;;12.40;99.90;;;;;;5044089;28;20976;-68
2021/10/25 01:09:37;;;;;;;8.53;3.00;;;12.50;99.90;;;;;;5038202;28;20469;-68
2021/10/25 01:12:08;;;;;;;6.70;2.53;;;12.40;99.90;;;;;;5044717;28;20467;-69
2021/10/25 01:14:40;;;;;;;5.90;2.60;;;12.40;99.90;;;;;;5030248;28;20464;-69
2021/10/25 01:17:11;;;;;;;5.80;2.23;;;12.30;99.90;;;;;;5048840;28;20560;-68
2021/10/25 01:19:42;;;;;;;5.27;2.57;;;12.30;99.90;;;;;;5042395;28;20484;-68
2021/10/25 01:22:15;;;;;;;8.87;3.43;;;12.30;99.90;;;;;;5052178;28;20573;-70
2021/10/25 01:24:46;;;;;;;5.37;2.20;;;12.30;99.90;;;;;;5039346;28;20464;-68
2021/10/25 01:27:16;;;;;;;8.43;3.17;;;12.30;99.90;;;;;;5052899;28;21051;-69
2021/10/25 01:29:50;;;;;;;5.20;2.50;;;12.40;99.90;;;;;;5046897;28;20479;-69
2021/10/25 01:32:21;;;;;;;7.70;3.03;;;12.40;99.90;;;;;;5051778;28;20453;-68
2021/10/25 01:34:52;;;;;;;2.97;2.30;;;12.50;99.90;;;;;;5040730;28;20461;-69
2021/10/25 01:37:24;;;;;;;5.50;2.40;;;12.40;99.90;;;;;;5050076;28;20484;-69
2021/10/25 01:39:55;;;;;;;5.07;2.70;;;12.50;99.90;;;;;;5045702;28;20483;-69
2021/10/25 01:42:26;;;;;;;8.63;2.90;;;12.50;99.90;;;;;;5049279;28;20483;-69
2021/10/25 01:44:57;;;;;;;8.63;2.90;;;12.50;99.90;;;;;;5052390;28;20530;-69
2021/10/25 01:47:28;;;;;;;4.83;3.10;;;12.50;99.90;;;;;;5039980;28;20535;-69
2021/10/25 01:50:00;;;;;;;8.27;3.13;;;12.40;99.90;;;;;;5050274;28;20479;-69
2021/10/25 01:52:34;;;;;;;10.50;3.10;;;12.40;99.90;;;;;;5051866;28;20471;-70
2021/10/25 01:55:05;;;;;;;6.60;2.50;;;12.30;99.90;;;;;;5039052;28;20455;-70
2021/10/25 01:57:36;;;;;;;10.97;3.23;;;12.30;99.90;;;;;;5051857;28;20565;-72
2021/10/25 02:00:08;;;;;;;6.43;2.50;;;12.30;99.90;;;;;;5043419;28;21072;-69
2021/10/25 02:02:39;;;;;;;6.70;2.57;;;12.30;99.90;;;;;;5050949;28;21220;-69
2021/10/25 02:05:10;;;;;;;10.63;2.70;;;12.20;99.90;;;;;;5050508;28;20468;-68
2021/10/25 02:07:42;;;;;;;7.17;3.37;;;12.20;99.90;;;;;;5035910;28;20773;-68
2021/10/25 02:10:14;;;;;;;4.93;2.63;;;12.20;99.90;;;;;;5034523;28;20460;-69
2021/10/25 02:12:45;;;;;;;4.80;2.60;;;12.30;99.90;;;;;;5036350;28;20456;-69
2021/10/25 02:15:16;;;;;;;6.00;2.47;;;12.40;99.90;;;;;;5033835;28;20519;-69
2021/10/25 02:17:47;;;;;;;7.43;2.07;;;12.40;99.90;;;;;;5046569;28;20552;-69
2021/10/25 02:20:18;;;;;;;8.97;2.60;;;12.50;99.90;;;;;;5041118;28;20483;-69
2021/10/25 02:22:51;;;;;;;7.17;3.57;;;12.50;99.90;;;;;;5050232;28;20969;-69
2021/10/25 02:25:21;;;;;;;5.60;2.93;;;12.50;99.90;;;;;;5040995;28;20950;-71
2021/10/25 02:27:52;;;;;;;6.63;3.00;;;12.50;99.90;;;;;;5049872;28;20448;-69
2021/10/25 02:30:24;;;;;;;9.30;3.60;;;12.50;99.90;;;;;;5044684;28;20522;-72
2021/10/25 02:32:55;;;;;;;3.13;2.17;;;12.50;99.90;;;;;;5049476;28;20452;-69
2021/10/25 02:35:26;;;;;;;7.53;3.03;;;12.50;99.90;;;;;;5040924;28;20476;-69
2021/10/25 02:37:58;;;;;;;7.23;2.80;;;12.50;99.90;;;;;;5051307;28;20452;-69
2021/10/25 02:40:31;;;;;;;6.20;1.97;;;12.60;99.90;;;;;;5047605;28;20573;-69
2021/10/25 02:43:01;;;;;;;6.07;2.73;;;12.60;99.90;;;;;;5040794;28;20456;-70
2021/10/25 02:45:33;;;;;;;8.30;2.87;;;12.70;99.90;;;;;;5049753;28;20463;-69
2021/10/25 02:48:05;;;;;;;4.80;2.20;;;12.70;99.90;;;;;;5048172;28;20456;-69
2021/10/25 02:50:36;;;;;;;7.13;2.63;;;12.70;99.90;;;;;;5051727;28;20464;-69
2021/10/25 02:53:09;;;;;;;5.47;3.00;;;12.70;99.90;;;;;;5042434;28;21010;-69
2021/10/25 02:55:40;;;;;;;7.07;2.67;;;12.60;99.90;;;;;;5043285;28;20455;-69
2021/10/25 02:58:11;;;;;;;5.17;2.53;;;12.70;99.90;;;;;;5049013;28;20500;-69
2021/10/25 03:00:41;;;;;;;7.67;2.30;;;12.70;99.90;;;;;;5044465;28;20484;-69
2021/10/25 03:03:12;;;;;;;4.37;2.60;;;12.80;99.90;;;;;;5045103;28;20480;-69
2021/10/25 03:05:44;;;;;;;9.70;2.70;;;12.80;99.90;;;;;;5043951;28;20535;-68
2021/10/25 03:08:16;;;;;;;5.70;2.60;;;12.90;99.90;;;;;;5048930;28;20492;-70
2021/10/25 03:10:47;;;;;;;6.20;2.93;;;12.80;99.90;;;;;;5051096;28;20444;-69
2021/10/25 03:13:19;;;;;;;4.80;2.40;;;12.80;99.90;;;;;;5032196;28;20544;-69
2021/10/25 03:15:50;;;;;;;6.87;2.70;;;12.70;99.90;;;;;;5051036;28;20514;-69
2021/10/25 03:18:21;;;;;;;7.23;2.40;;;12.70;99.90;;;;;;5033378;28;20467;-74
2021/10/25 03:20:51;;;;;;;5.50;2.60;;;12.80;99.90;;;;;;5050756;28;20484;-69
2021/10/25 03:23:25;;;;;;;7.13;2.70;;;12.90;99.90;;;;;;5048371;28;20977;-69
2021/10/25 03:25:55;;;;;;;3.17;2.30;;;12.90;99.90;;;;;;5050683;28;20452;-69
2021/10/25 03:28:26;;;;;;;6.53;3.07;;;12.90;99.90;;;;;;5042396;28;20514;-69
2021/10/25 03:30:57;;;;;;;4.23;1.90;;;13.00;99.90;;;;;;5050522;28;20979;-69
2021/10/25 03:33:29;;;;;;;7.57;2.20;;;12.90;99.90;;;;;;5047531;28;20453;-69
2021/10/25 03:36:00;;;;;;;6.93;2.13;;;12.90;99.90;;;;;;5046757;28;20463;-69
2021/10/25 03:38:33;;;;;;;4.37;2.23;;;12.80;99.90;;;;;;5047823;28;20865;-69
2021/10/25 03:41:07;;;;;;;4.10;2.03;;;12.90;99.90;;;;;;5046932;28;20488;-69
2021/10/25 03:43:44;;;;;;;7.10;2.60;;;12.90;99.90;;;;;;5039874;28;20479;-69
2021/10/25 03:46:20;;;;;;;5.60;2.10;;;12.80;99.90;;;;;;5050700;28;20888;-69
2021/10/25 03:48:55;;;;;;;5.50;2.40;;;12.80;99.90;;;;;;5044095;28;20518;-69
2021/10/25 03:51:26;;;;;;;7.70;2.50;;;12.80;99.90;;;;;;5048355;28;20474;-70
2021/10/25 03:54:06;;;;;;;7.13;2.03;;;12.70;99.90;;;;;;5048227;28;20460;-69
2021/10/25 03:59:34;;;;;;;6.40;2.10;;;12.90;99.90;;;;;;5028550;28;20495;-70
2021/10/25 04:02:23;;;;;;;7.20;3.00;;;13.00;99.90;;;;;;5045284;28;21044;-69
2021/10/25 04:27:23;;;;;;;4.43;2.20;;;13.20;99.90;;;;;;5049734;28;21027;-70
2021/10/25 04:29:59;;;;;;;5.07;2.13;;;13.20;99.90;;;;;;5040769;28;20468;-69
2021/10/25 04:32:33;;;;;;;8.70;1.70;;;13.30;99.90;;;;;;5048358;28;20464;-72
2021/10/25 04:35:05;;;;;;;4.63;1.90;;;13.30;99.90;;;;;;5047776;28;20463;-69
2021/10/25 04:37:36;;;;;;;6.13;2.23;;;13.20;99.90;;;;;;5048665;28;20977;-69
2021/10/25 04:40:08;;;;;;;6.17;2.50;;;13.30;99.90;;;;;;5040362;28;20971;-69
2021/10/25 04:42:41;;;;;;;7.17;2.23;;;13.20;99.90;;;;;;5040767;28;20488;-70
2021/10/25 04:45:12;;;;;;;4.17;1.70;;;13.30;99.90;;;;;;5040900;28;20468;-69
2021/10/25 04:47:42;;;;;;;5.90;1.73;;;13.30;99.90;;;;;;5040727;28;20465;-69
2021/10/25 04:50:14;;;;;;;4.07;1.80;;;13.30;99.90;;;;;;5046787;28;20460;-68
2021/10/25 04:52:44;;;;;;;4.67;1.47;;;13.40;99.90;;;;;;5033422;28;20482;-69
2021/10/25 04:55:15;;;;;;;7.93;2.37;;;13.40;99.90;;;;;;5046986;28;20452;-69
2021/10/25 04:57:48;;;;;;;3.97;1.87;;;13.40;99.90;;;;;;5048667;28;20459;-69
2021/10/25 05:00:19;;;;;;;8.63;1.77;;;13.50;99.90;;;;;;5031097;28;20469;-69
2021/10/25 05:02:50;;;;;;;4.50;1.93;;;13.50;99.90;;;;;;5048124;28;20986;-69
2021/10/25 05:05:20;;;;;;;4.03;1.70;;;13.50;99.90;;;;;;5038732;28;20543;-69
2021/10/25 05:07:51;;;;;;;5.60;1.97;;;13.50;99.90;;;;;;5042198;28;20460;-69
2021/10/25 05:10:22;;;;;;;6.10;1.40;;;13.50;99.90;;;;;;5046897;28;20486;-69
2021/10/25 05:12:55;;;;;;;7.47;2.27;;;13.50;99.90;;;;;;5048892;28;20463;-68
2021/10/25 05:15:26;;;;;;;6.13;1.70;;;13.50;99.90;;;;;;5046598;28;20976;-68
2021/10/25 05:18:01;;;;;;;3.40;1.73;;;13.40;99.90;;;;;;5045810;28;20463;-69
2021/10/25 05:20:32;;;;;;;4.70;1.90;;;13.40;99.90;;;;;;5048634;28;20797;-69
2021/10/25 05:23:02;;;;;;;7.37;1.80;;;13.40;99.90;;;;;;5044784;28;20612;-69
2021/10/25 05:25:33;;;;;;;7.93;1.90;;;13.30;99.90;;;;;;5039524;28;20983;-69
2021/10/25 05:28:06;;;;;;;7.10;2.20;;;13.30;99.90;;;;;;5046617;28;20466;-69
2021/10/25 05:30:37;;;;;;;2.60;1.80;;;13.40;99.90;;;;;;5041740;28;20518;-68
2021/10/25 05:33:08;;;;;;;7.07;2.03;;;13.40;99.90;;;;;;5047394;28;20456;-69
2021/10/25 05:35:39;;;;;;;5.23;1.73;;;13.40;99.90;;;;;;5044059;28;20574;-69
2021/10/25 05:38:12;;;;;;;5.47;1.80;;;13.40;99.90;;;;;;5048419;28;20903;-68
2021/10/25 05:40:46;;;;;;;4.83;1.47;;;13.30;99.90;;;;;;5047006;28;20472;-69
2021/10/25 05:43:19;;;;;;;6.17;1.40;;;13.20;99.90;;;;;;5048030;28;20484;-68
2021/10/25 05:45:49;;;;;;;5.10;1.80;;;13.20;99.90;;;;;;5026420;28;20982;-69
2021/10/25 05:48:21;;;;;;;2.43;1.60;;;13.10;99.90;;;;;;5034627;28;20463;-69
2021/10/25 05:50:55;;;;;;;5.73;1.70;;;13.20;99.90;;;;;;5048223;28;20467;-69
2021/10/25 05:53:25;;;;;;;5.70;1.93;;;13.20;99.90;;;;;;5046725;28;20478;-69
2021/10/25 05:55:57;;;;;;;3.50;1.43;;;13.20;99.90;;;;;;5048337;28;20456;-69
2021/10/25 05:58:30;;;;;;;2.70;1.40;;;13.30;99.90;;;;;;5044754;28;20946;-69
2021/10/25 06:01:02;;;;;;;3.43;1.40;;;13.40;99.90;;;;;;5043502;28;20553;-69
2021/10/25 06:03:34;;;;;;;5.50;1.30;;;13.40;99.90;;;;;;5046085;28;20507;-69
2021/10/25 06:06:06;;;;;;;2.93;1.47;;;13.30;99.90;;;;;;5048143;28;20452;-69
2021/10/25 06:08:39;;;;;;;5.77;1.40;;;13.20;99.90;;;;;;5049869;28;20452;-69
2021/10/25 06:11:10;;;;;;;6.60;1.60;;;13.30;99.90;;;;;;5049577;28;20448;-68
2021/10/25 06:13:44;;;;;;;2.60;1.27;;;13.30;99.90;;;;;;5037323;28;20471;-69
2021/10/25 06:16:16;;;;;;;3.73;1.40;;;13.40;99.90;;;;;;5048640;28;20462;-69
2021/10/25 06:18:47;;;;;;;2.70;1.30;;;13.40;99.90;;;;;;5042349;28;20460;-69
2021/10/25 06:21:18;;;;;;;3.63;1.47;;;13.40;99.90;;;;;;5051941;28;20463;-69
2021/10/25 06:23:51;;;;;;;4.17;1.53;;;13.50;99.90;;;;;;5049733;28;20471;-69
2021/10/25 06:26:21;;;;;;;3.40;1.60;;;13.40;99.90;;;;;;5049861;28;20451;-69
2021/10/25 06:28:54;;;;;;;4.00;1.20;;;13.50;99.90;;;;;;5048235;28;20464;-69
2021/10/25 06:31:27;;;;;;;2.77;1.27;;;13.50;99.90;;;;;;5052034;28;20470;-69
2021/10/25 06:34:02;;;;;;;3.83;1.87;;;13.40;99.90;;;;;;5049254;28;20518;-69
2021/10/25 06:36:35;;;;;;;3.20;1.40;;;13.40;99.90;;;;;;5051915;28;20465;-69
2021/10/25 06:39:12;;;;;;;5.10;1.33;;;13.50;99.90;;;;;;5045684;28;20896;-69
2021/10/25 06:41:43;;;;;;;3.40;1.23;;;13.50;99.90;;;;;;5051902;28;20460;-68
2021/10/25 06:44:15;;;;;;;3.20;1.47;;;13.40;99.90;;;;;;5049774;28;20479;-69
2021/10/25 06:46:46;;;;;;;6.87;1.37;;;13.40;99.90;;;;;;5052095;28;20456;-69
2021/10/25 06:49:17;;;;;;;5.97;2.17;;;13.30;99.90;;;;;;5042819;28;20467;-69
2021/10/25 06:51:47;;;;;;;5.23;1.40;;;13.30;99.90;;;;;;5051400;28;20568;-70
2021/10/25 06:54:18;;;;;;;3.93;0.90;;;13.40;99.90;;;;;;5041425;28;21005;-70
2021/10/25 06:56:49;;;;;;;3.77;1.33;;;13.40;99.90;;;;;;5051183;28;20462;-70
2021/10/25 06:59:22;;;;;;;2.87;1.53;;;13.40;99.90;;;;;;5039735;28;20452;-69
2021/10/25 07:01:52;;;;;;;5.77;1.40;;;13.40;99.90;;;;;;5051182;28;20452;-69
2021/10/25 07:04:23;;;;;;;12.53;1.20;;;13.30;99.90;;;;;;5046454;28;20984;-69
2021/10/25 07:06:55;;;;;;;4.00;1.80;;;13.40;99.90;;;;;;5049262;28;20837;-69
2021/10/25 07:09:26;;;;;;;3.67;1.30;;;13.40;99.90;;;;;;5049218;28;20467;-69
2021/10/25 07:11:57;;;;;;;3.70;0.83;;;13.40;99.90;;;;;;5043250;28;20774;-69
2021/10/25 07:14:33;;;;;;;4.87;1.30;;;13.40;99.90;;;;;;5050588;28;20456;-69
2021/10/25 07:17:17;;;;;;;2.23;1.23;;;13.40;99.90;;;;;;5044299;28;20471;-69
2021/10/25 07:20:10;;;;;;;3.60;1.80;;;13.30;99.90;;;;;;5044533;28;20460;-70
2021/10/25 07:23:08;;;;;;;3.30;0.80;;;13.10;99.90;;;;;;5050663;28;20890;-70
2021/10/25 08:08:06;;;;;;;2.53;1.07;;;13.20;99.90;;;;;;5041195;28;20464;-69
2021/10/25 08:10:40;;;;;;;3.53;1.00;;;13.30;99.90;;;;;;5050097;28;20460;-70
2021/10/25 08:13:14;;;;;;;1.70;0.50;;;13.30;99.90;;;;;;5041264;28;20471;-71
2021/10/25 08:15:46;;;;;;;2.63;0.80;;;13.20;99.90;;;;;;5043003;28;20468;-70
2021/10/25 08:18:33;;;;;;;1.70;1.10;;;13.20;99.90;;;;;;5041833;28;20814;-70
2021/10/25 08:21:06;;;;;;;2.70;1.10;;;13.20;99.90;;;;;;5049394;28;20453;-70
2021/10/25 08:23:37;;;;;;;2.77;0.83;;;13.20;99.90;;;;;;5047435;28;20696;-70
2021/10/25 08:26:11;;;;;;;4.03;0.90;;;13.10;99.90;;;;;;5049589;28;20464;-69
2021/10/25 08:28:42;;;;;;;2.40;1.10;;;13.10;99.90;;;;;;5032054;28;20464;-70
2021/10/25 08:31:13;;;;;;;1.70;1.60;;;13.00;99.90;;;;;;5039174;28;20468;-69
2021/10/25 08:34:02;;;;;;;5.07;1.50;;;13.00;99.90;;;;;;5049024;28;20809;-69
2021/10/25 08:42:15;;;;;;;3.20;1.40;;;13.00;99.90;;;;;;5048864;28;20459;-70
2021/10/25 08:44:53;;;;;;;5.10;1.37;;;13.00;99.90;;;;;;5043382;28;20511;-69
2021/10/25 08:47:26;;;;;;;4.50;0.90;;;13.00;99.90;;;;;;5046189;28;20547;-69
2021/10/25 08:49:57;;;;;;;4.37;2.53;;;13.00;99.90;;;;;;5035258;28;20552;-69
2021/10/25 08:52:30;;;;;;;3.23;1.33;;;13.00;99.90;;;;;;5048353;28;20946;-70
2021/10/25 08:55:04;;;;;;;5.23;1.30;;;13.00;99.90;;;;;;5047286;28;20468;-70
2021/10/25 08:57:35;;;;;;;4.50;1.00;;;13.00;99.90;;;;;;5039070;28;20472;-69
2021/10/25 09:00:09;;;;;;;2.90;1.33;;;13.00;99.90;;;;;;5047489;28;20833;-70
2021/10/25 09:02:42;;;;;;;2.27;0.90;;;13.00;99.90;;;;;;5039932;28;21002;-69
2021/10/25 09:05:20;;;;;;;1.37;1.03;;;13.00;99.90;;;;;;5047499;28;20486;-70
2021/10/25 09:07:54;;;;;;;2.47;0.80;;;13.00;99.90;;;;;;5048539;28;20474;-70
2021/10/25 09:10:26;;;;;;;2.10;0.73;;;13.00;99.90;;;;;;5047070;28;20464;-72
2021/10/25 09:12:59;;;;;;;2.50;1.20;;;13.00;99.90;;;;;;5048738;28;20563;-70
2021/10/25 09:15:31;;;;;;;3.63;1.30;;;13.00;99.90;;;;;;5047181;28;20471;-70
2021/10/25 09:18:08;;;;;;;5.13;1.10;;;12.90;99.90;;;;;;5046032;28;20593;-70
2021/10/25 09:20:45;;;;;;;2.30;0.80;;;12.80;99.90;;;;;;5048762;28;20474;-69
2021/10/25 09:23:19;;;;;;;3.93;1.10;;;12.80;99.90;;;;;;5040111;28;21033;-69
2021/10/25 09:25:53;;;;;;;3.93;1.20;;;12.60;99.90;;;;;;5042549;28;20928;-69
2021/10/25 09:28:30;;;;;;;4.47;0.90;;;12.60;99.90;;;;;;5046302;28;20816;-69
2021/10/25 09:31:04;;;;;;;2.30;1.07;;;12.60;99.90;;;;;;5048644;28;20452;-70
2021/10/25 09:33:36;;;;;;;1.73;0.70;;;12.50;99.90;;;;;;5045702;28;20448;-70
2021/10/25 09:36:13;;;;;;;2.10;0.67;;;12.50;99.90;;;;;;5047273;28;20563;-69
2021/10/25 09:38:54;;;;;;;2.67;0.67;;;12.50;99.90;;;;;;5037715;28;20526;-69
2021/10/25 09:41:43;;;;;;;2.53;1.30;;;12.40;99.90;;;;;;5046853;28;20553;-69
2021/10/25 09:49:56;;;;;;;5.37;2.83;;;12.60;99.90;;;;;;5047661;28;20577;-69
2021/10/25 09:52:31;;;;;;;3.23;1.00;;;12.60;99.90;;;;;;5050335;28;20474;-71
2021/10/25 09:55:07;;;;;;;3.30;1.20;;;12.70;99.90;;;;;;5052558;28;20448;-69
2021/10/25 09:57:43;;;;;;;3.10;1.20;;;12.70;99.90;;;;;;5050141;28;20468;-69
2021/10/25 10:00:15;;;;;;;1.80;0.67;;;12.80;99.90;;;;;;5050814;28;20456;-71
2021/10/25 10:02:47;;;;;;;5.87;1.10;;;12.80;99.90;;;;;;5051479;28;20452;-69
2021/10/25 10:05:24;;;;;;;1.80;0.60;;;12.70;99.90;;;;;;5034910;28;20484;-70
2021/10/25 10:08:01;;;;;;;2.77;0.93;;;12.80;99.90;;;;;;5052424;28;20464;-70
2021/10/25 10:10:34;;;;;;;2.60;1.10;;;12.80;99.90;;;;;;5041806;28;20452;-69
2021/10/25 10:13:05;;;;;;;4.30;0.83;;;12.90;99.90;;;;;;5052124;28;20468;-70
2021/10/25 10:15:38;;;;;;;2.50;1.57;;;12.80;99.90;;;;;;5049876;28;20832;-70
2021/10/25 10:18:13;;;;;;;0.97;0.87;;;12.90;99.90;;;;;;5049070;28;20456;-69
2021/10/25 10:20:44;;;;;;;1.90;1.00;;;12.80;99.90;;;;;;5052282;28;20455;-69
2021/10/25 10:23:18;;;;;;;3.57;1.10;;;12.70;99.90;;;;;;5046717;28;20483;-70
2021/10/25 10:25:54;;;;;;;1.73;0.73;;;12.70;99.90;;;;;;5045270;28;20462;-70
2021/10/25 10:28:35;;;;;;;3.80;1.00;;;12.70;99.90;;;;;;5043502;28;20582;-70
2021/10/25 10:31:10;;;;;;;2.40;1.00;;;12.70;99.90;;;;;;5047549;28;20550;-69
2021/10/25 10:33:43;;;;;;;2.70;1.07;;;12.80;99.90;;;;;;5041107;28;20453;-70
2021/10/25 10:36:17;;;;;;;2.53;1.07;;;12.80;99.90;;;;;;5051981;28;20463;-72
2021/10/25 10:38:53;;;;;;;4.00;1.50;;;12.80;99.90;;;;;;5049507;28;20451;-69
2021/10/25 10:41:39;;;;;;;1.77;1.13;;;12.90;99.90;;;;;;5041388;28;20977;-69
2021/10/25 10:44:12;;;;;;;2.50;0.80;;;12.90;99.90;;;;;;5049289;28;20487;-69
2021/10/25 10:46:45;;;;;;;2.73;0.90;;;12.90;99.90;;;;;;5049885;28;20529;-69
2021/10/25 10:49:29;;;;;;;5.83;0.93;;;12.90;99.90;;;;;;5045784;28;20974;-70
2021/10/25 10:55:03;;;;;;;1.77;1.00;;;12.90;99.90;;;;;;5046433;28;20987;-69
2021/10/25 11:00:35;;;;;;;3.83;1.03;;;12.90;99.90;;;;;;5045775;28;20460;-69
2021/10/25 11:03:19;;;;;;;3.67;0.97;;;12.90;99.90;;;;;;5049866;28;20456;-69
2021/10/25 11:05:55;;;;;;;1.93;1.30;;;12.90;99.90;;;;;;5048096;28;20859;-70
2021/10/25 11:08:30;;;;;;;2.17;1.23;;;12.80;99.90;;;;;;5043500;28;20892;-69
2021/10/25 11:11:04;;;;;;;3.60;0.87;;;12.70;99.90;;;;;;5046046;28;20452;-69
2021/10/25 11:13:41;;;;;;;2.20;1.00;;;12.60;99.90;;;;;;5050234;28;20455;-70
2021/10/25 11:16:15;;;;;;;1.20;1.00;;;12.60;99.90;;;;;;5046007;28;20559;-69
2021/10/25 11:18:48;;;;;;;2.90;1.40;;;12.60;99.90;;;;;;5048027;28;20550;-69
2021/10/25 11:21:22;;;;;;;3.60;1.70;;;12.70;99.90;;;;;;5048171;28;20448;-70
2021/10/25 11:23:56;;;;;;;4.53;1.10;;;12.70;99.90;;;;;;5048930;28;20471;-69
2021/10/25 11:26:29;;;;;;;2.10;1.10;;;12.60;99.90;;;;;;5049476;28;20465;-70
2021/10/25 11:29:10;;;;;;;4.17;1.73;;;12.70;99.90;;;;;;5041090;28;20472;-69
2021/10/25 11:31:44;;;;;;;2.80;1.20;;;12.80;99.90;;;;;;5042909;28;20834;-70
2021/10/25 11:34:19;;;;;;;2.60;1.23;;;12.80;99.90;;;;;;5031108;28;20460;-70
2021/10/25 11:37:00;;;;;;;3.07;1.00;;;12.80;99.90;;;;;;5047057;28;20455;-69
2021/10/25 11:39:37;;;;;;;6.23;1.53;;;12.80;99.90;;;;;;5047500;28;20821;-69
2021/10/25 11:42:10;;;;;;;4.03;1.67;;;12.70;99.90;;;;;;5048680;28;20464;-69
2021/10/25 11:44:43;;;;;;;3.13;0.90;;;12.70;99.90;;;;;;5033835;28;20897;-70
2021/10/25 11:47:21;;;;;;;4.17;1.73;;;12.70;99.90;;;;;;5048636;28;20460;-71
2021/10/25 11:49:53;;;;;;;5.70;1.40;;;12.60;99.90;;;;;;5048172;28;20539;-69
2021/10/25 11:52:24;;;;;;;3.10;1.30;;;12.60;99.90;;;;;;5049377;28;20560;-70
2021/10/25 11:54:56;;;;;;;3.80;1.20;;;12.60;99.90;;;;;;5048495;28;20543;-69
2021/10/25 11:57:28;;;;;;;3.10;1.43;;;12.70;99.90;;;;;;5049710;28;20452;-69
2021/10/25 12:00:03;;;;;;;3.67;1.17;;;12.70;99.90;;;;;;5040564;28;20947;-70
2021/10/25 12:02:35;;;;;;;7.00;1.40;;;12.80;99.90;;;;;;5048890;28;20585;-69
2021/10/25 12:05:07;;;;;;;2.60;1.27;;;12.70;99.90;;;;;;5048203;28;20850;-72
2021/10/25 12:07:48;;;;;;;4.33;1.40;;;12.80;99.90;;;;;;5044552;28;20607;-69
2021/10/25 12:10:20;;;;;;;4.00;1.53;;;12.70;99.90;;;;;;5047131;28;20460;-68
2021/10/25 12:12:53;;;;;;;2.23;1.00;;;12.80;99.90;;;;;;5048003;28;20456;-70
2021/10/25 12:15:26;;;;;;;5.43;1.37;;;12.80;99.90;;;;;;5049643;28;20552;-70
2021/10/25 12:17:58;;;;;;;3.53;1.10;;;12.80;99.90;;;;;;5039771;28;21135;-70
2021/10/25 12:20:32;;;;;;;4.67;1.30;;;12.80;99.90;;;;;;5049814;28;20452;-70
2021/10/25 12:23:22;;;;;;;2.87;1.10;;;12.80;99.90;;;;;;5044989;28;20460;-70
2021/10/25 12:25:57;;;;;;;3.53;1.73;;;12.80;99.90;;;;;;5049806;28;20490;-70
2021/10/25 12:28:29;;;;;;;6.50;1.73;;;12.70;99.90;;;;;;5046210;28;20932;-69
2021/10/25 12:31:11;;;;;;;2.43;0.97;;;12.70;99.90;;;;;;5048293;28;20796;-69
2021/10/25 12:33:45;;;;;;;3.20;1.60;;;12.80;99.90;;;;;;5039030;28;20485;-69
2021/10/25 12:36:16;;;;;;;1.70;0.80;;;12.80;99.90;;;;;;5040253;28;20488;-70
2021/10/25 12:38:49;;;;;;;6.93;1.47;;;12.80;99.90;;;;;;5049330;28;20459;-69
2021/10/25 12:41:20;;;;;;;6.93;1.83;;;12.90;99.90;;;;;;5047433;28;20452;-69
2021/10/25 12:43:53;;;;;;;1.13;0.83;;;12.90;99.90;;;;;;5048968;28;20452;-69
2021/10/25 12:46:33;;;;;;;3.23;1.37;;;12.90;99.90;;;;;;5045674;28;20506;-70
2021/10/25 12:49:05;;;;;;;2.33;1.20;;;12.90;99.90;;;;;;5046625;28;20866;-69
2021/10/25 12:51:37;;;;;;;4.60;1.40;;;12.90;99.90;;;;;;5048607;28;20480;-70
2021/10/25 12:54:10;;;;;;;4.27;1.50;;;13.00;99.90;;;;;;5027831;28;20506;-69
2021/10/25 12:56:41;;;;;;;6.60;1.30;;;12.90;99.90;;;;;;5032910;28;20452;-70
2021/10/25 12:59:13;;;;;;;2.20;0.93;;;12.90;99.90;;;;;;5045830;28;20480;-69
2021/10/25 13:01:57;;;;;;;5.50;1.27;;;12.90;99.90;;;;;;5033759;28;20450;-69
2021/10/25 13:04:30;;;;;;;4.10;1.40;;;12.90;99.90;;;;;;5046630;28;20519;-69
2021/10/25 13:07:13;;;;;;;6.03;1.50;;;12.90;99.90;;;;;;5043635;28;20485;-69
2021/10/25 13:09:51;;;;;;;4.33;1.23;;;13.00;99.90;;;;;;5041713;28;20458;-69
2021/10/25 13:12:22;;;;;;;4.93;1.43;;;13.00;99.90;;;;;;5035261;28;20452;-69
2021/10/25 13:14:55;;;;;;;4.77;1.20;;;12.90;99.90;;;;;;5042924;28;20456;-69
2021/10/25 13:17:43;;;;;;;4.67;1.30;;;12.90;99.90;;;;;;5037431;28;20480;-69
2021/10/25 13:20:17;;;;;;;4.17;1.30;;;12.80;99.90;;;;;;5046771;28;20456;-70
2021/10/25 13:22:48;;;;;;;3.77;1.30;;;12.90;99.90;;;;;;5048712;28;20450;-70
2021/10/25 13:25:20;;;;;;;3.60;1.50;;;12.80;99.90;;;;;;5037904;28;20823;-70
2021/10/25 13:27:51;;;;;;;3.70;1.43;;;12.90;99.90;;;;;;5048382;28;20467;-69
2021/10/25 13:30:24;;;;;;;1.93;0.80;;;12.80;99.90;;;;;;5041825;28;20479;-69
2021/10/25 13:32:56;;;;;;;2.03;1.20;;;12.80;99.90;;;;;;5048046;28;20458;-70
2021/10/25 13:35:27;;;;;;;2.40;1.03;;;12.90;99.90;;;;;;5045768;28;20471;-69
2021/10/25 13:37:58;;;;;;;4.97;1.73;;;12.90;99.90;;;;;;5048357;28;20463;-69
2021/10/25 13:40:30;;;;;;;2.70;1.00;;;13.00;99.90;;;;;;5037441;28;20833;-69
2021/10/25 13:43:02;;;;;;;2.10;1.07;;;13.00;99.90;;;;;;5048639;28;20455;-69
2021/10/25 13:45:33;;;;;;;4.47;1.07;;;13.00;99.90;;;;;;5046308;28;21690;-69
2021/10/25 13:48:06;;;;;;;3.10;0.93;;;13.00;99.90;;;;;;5045706;28;20452;-70
2021/10/25 13:50:37;;;;;;;3.80;1.10;;;13.00;99.90;;;;;;5048907;28;20463;-69
2021/10/25 13:53:09;;;;;;;2.43;0.83;;;13.00;99.90;;;;;;5046368;28;20511;-69
2021/10/25 13:55:40;;;;;;;5.23;1.30;;;12.80;99.90;;;;;;5048912;28;20452;-69
2021/10/25 13:58:11;;;;;;;3.77;1.30;;;12.80;99.90;;;;;;5047265;28;20498;-69
2021/10/25 14:00:42;;;;;;;4.63;1.77;;;12.80;99.90;;;;;;5031572;28;20474;-69
2021/10/25 14:03:14;;;;;;;3.70;1.87;;;12.80;99.90;;;;;;5047758;28;20894;-69
2021/10/25 14:05:46;;;;;;;3.87;1.33;;;12.80;99.90;;;;;;5040149;28;20479;-69
2021/10/25 14:08:17;;;;;;;3.10;1.40;;;12.90;99.90;;;;;;5048348;28;20452;-70
2021/10/25 14:10:51;;;;;;;3.80;1.23;;;12.90;99.90;;;;;;5046649;28;20507;-70
2021/10/25 14:13:29;;;;;;;3.40;1.10;;;12.80;99.90;;;;;;5048022;28;20832;-69
2021/10/25 14:16:22;;;;;;;17.63;2.07;;;12.80;99.90;;;;;;5034825;28;20448;-69
2021/10/25 14:18:54;;;;;;;6.87;1.33;;;12.80;99.90;;;;;;5045427;28;20836;-69
2021/10/25 14:21:27;;;;;;;3.80;1.20;;;12.80;99.90;;;;;;5046387;28;20459;-68
2021/10/25 14:23:58;;;;;;;3.20;0.90;;;12.70;99.90;;;;;;5037175;28;20464;-69
2021/10/25 14:26:29;;;;;;;3.13;1.13;;;12.80;99.90;;;;;;5046766;28;20495;-69
2021/10/25 14:29:00;;;;;;;6.17;1.90;;;12.80;99.90;;;;;;5045818;28;20479;-70
2021/10/25 14:31:31;;;;;;;3.63;0.97;;;12.80;99.90;;;;;;5051891;28;20949;-70
2021/10/25 14:34:04;;;;;;;3.10;0.87;;;12.80;99.90;;;;;;5049780;28;20464;-70
2021/10/25 14:36:35;;;;;;;4.40;1.10;;;12.80;99.90;;;;;;5051840;28;20447;-71
2021/10/25 14:39:18;;;;;;;3.43;0.93;;;12.80;99.90;;;;;;5049505;28;20460;-69
2021/10/25 14:41:56;;;;;;;2.30;1.00;;;12.80;99.90;;;;;;5051956;28;20965;-70